sensor_id;sensor_type;location;lat;lon;timestamp;temperature;humidity
40996;DHT22;26723;57.478;12.066;2022-10-31T00:02:47;13.20;99.90
40996;DHT22;26723;57.478;12.066;2022-10-31T00:05:55;13.20;99.90
40996;DHT22;26723;57.478;12.066;2022-10-31T00:09:05;13.20;99.90
40996;DHT22;26723;57.478;12.066;2022-10-31T00:12:14;13.20;99.90
40996;DHT22;26723;57.478;12.066;2022-10-31T00:15:22;13.20;99.90
40996;DHT22;26723;57.478;12.066;2022-10-31T00:18:30;13.20;99.90
40996;DHT22;26723;57.478;12.066;2022-10-31T00:21:39;13.20;99.90
40996;DHT22;26723;57.478;12.066;2022-10-31T00:24:48;13.20;99.90
40996;DHT22;26723;57.478;12.066;2022-10-31T00:27:57;13.20;99.90
40996;DHT22;26723;57.478;12.066;2022-10-31T00:31:08;13.10;99.90
40996;DHT22;26723;57.478;12.066;2022-10-31T00:34:17;13.10;99.90
40996;DHT22;26723;57.478;12.066;2022-10-31T00:37:25;13.20;99.90
40996;DHT22;26723;57.478;12.066;2022-10-31T00:40:36;13.20;99.90
40996;DHT22;26723;57.478;12.066;2022-10-31T00:43:44;13.10;99.90
40996;DHT22;26723;57.478;12.066;2022-10-31T00:46:53;13.10;99.90
40996;DHT22;26723;57.478;12.066;2022-10-31T00:50:01;13.20;99.90
40996;DHT22;26723;57.478;12.066;2022-10-31T00:53:09;13.10;99.90
40996;DHT22;26723;57.478;12.066;2022-10-31T00:56:19;13.20;99.90
40996;DHT22;26723;57.478;12.066;2022-10-31T00:59:28;13.20;99.90
40996;DHT22;26723;57.478;12.066;2022-10-31T01:02:36;13.20;99.90
40996;DHT22;26723;57.478;12.066;2022-10-31T01:05:45;13.20;99.90
40996;DHT22;26723;57.478;12.066;2022-10-31T01:08:54;13.10;99.90
40996;DHT22;26723;57.478;12.066;2022-10-31T01:12:04;13.10;99.90
40996;DHT22;26723;57.478;12.066;2022-10-31T01:15:13;13.10;99.90
40996;DHT22;26723;57.478;12.066;2022-10-31T01:18:22;13.10;99.90
40996;DHT22;26723;57.478;12.066;2022-10-31T01:21:31;13.10;99.90
40996;DHT22;26723;57.478;12.066;2022-10-31T01:24:40;13.10;99.90
40996;DHT22;26723;57.478;12.066;2022-10-31T01:27:50;13.10;99.90
40996;DHT22;26723;57.478;12.066;2022-10-31T01:31:00;13.20;99.90
40996;DHT22;26723;57.478;12.066;2022-10-31T01:34:13;13.10;99.90
40996;DHT22;26723;57.478;12.066;2022-10-31T01:37:22;13.10;99.90
40996;DHT22;26723;57.478;12.066;2022-10-31T01:40:31;13.10;99.90
40996;DHT22;26723;57.478;12.066;2022-10-31T01:43:50;13.10;99.90
40996;DHT22;26723;57.478;12.066;2022-10-31T01:47:01;13.10;99.90
40996;DHT22;26723;57.478;12.066;2022-10-31T01:50:15;13.10;99.90
40996;DHT22;26723;57.478;12.066;2022-10-31T01:53:28;13.10;99.90
40996;DHT22;26723;57.478;12.066;2022-10-31T01:56:39;13.10;99.90
40996;DHT22;26723;57.478;12.066;2022-10-31T01:59:53;13.10;99.90
40996;DHT22;26723;57.478;12.066;2022-10-31T02:03:03;13.10;99.90
40996;DHT22;26723;57.478;12.066;2022-10-31T02:06:21;13.20;99.90
40996;DHT22;26723;57.478;12.066;2022-10-31T02:09:34;13.10;99.90
40996;DHT22;26723;57.478;12.066;2022-10-31T02:12:45;13.10;99.90
40996;DHT22;26723;57.478;12.066;2022-10-31T02:15:57;13.10;99.90
40996;DHT22;26723;57.478;12.066;2022-10-31T02:19:08;13.10;99.90
40996;DHT22;26723;57.478;12.066;2022-10-31T02:22:24;13.10;99.90
40996;DHT22;26723;57.478;12.066;2022-10-31T02:33:06;13.20;99.90
40996;DHT22;26723;57.478;12.066;2022-10-31T02:36:21;13.20;99.90
40996;DHT22;26723;57.478;12.066;2022-10-31T02:39:37;13.20;99.90
40996;DHT22;26723;57.478;12.066;2022-10-31T02:42:53;13.20;99.90
40996;DHT22;26723;57.478;12.066;2022-10-31T02:46:10;13.20;99.90
40996;DHT22;26723;57.478;12.066;2022-10-31T02:49:27;13.20;99.90
40996;DHT22;26723;57.478;12.066;2022-10-31T02:52:36;13.20;99.90
40996;DHT22;26723;57.478;12.066;2022-10-31T02:56:00;13.20;99.90
40996;DHT22;26723;57.478;12.066;2022-10-31T02:59:09;13.20;99.90
40996;DHT22;26723;57.478;12.066;2022-10-31T03:02:35;13.20;99.90
40996;DHT22;26723;57.478;12.066;2022-10-31T03:05:53;13.20;99.90
40996;DHT22;26723;57.478;12.066;2022-10-31T03:09:09;13.20;99.90
40996;DHT22;26723;57.478;12.066;2022-10-31T03:12:24;13.10;99.90
40996;DHT22;26723;57.478;12.066;2022-10-31T03:15:37;13.10;99.90
40996;DHT22;26723;57.478;12.066;2022-10-31T03:18:49;13.10;99.90
40996;DHT22;26723;57.478;12.066;2022-10-31T03:22:04;13.10;99.90
40996;DHT22;26723;57.478;12.066;2022-10-31T03:25:13;13.10;99.90
40996;DHT22;26723;57.478;12.066;2022-10-31T03:28:26;13.10;99.90
40996;DHT22;26723;57.478;12.066;2022-10-31T03:31:41;13.10;99.90
40996;DHT22;26723;57.478;12.066;2022-10-31T03:34:57;13.20;99.90
40996;DHT22;26723;57.478;12.066;2022-10-31T03:38:08;13.20;99.90
40996;DHT22;26723;57.478;12.066;2022-10-31T03:41:20;13.20;99.90
40996;DHT22;26723;57.478;12.066;2022-10-31T03:44:30;13.10;99.90
40996;DHT22;26723;57.478;12.066;2022-10-31T03:47:42;13.10;99.90
40996;DHT22;26723;57.478;12.066;2022-10-31T03:50:58;13.10;99.90
40996;DHT22;26723;57.478;12.066;2022-10-31T03:54:14;13.10;99.90
40996;DHT22;26723;57.478;12.066;2022-10-31T03:57:27;13.10;99.90
40996;DHT22;26723;57.478;12.066;2022-10-31T04:00:38;13.10;99.90
40996;DHT22;26723;57.478;12.066;2022-10-31T04:03:48;13.20;99.90
40996;DHT22;26723;57.478;12.066;2022-10-31T04:06:57;13.20;99.90
40996;DHT22;26723;57.478;12.066;2022-10-31T04:10:12;13.20;99.90
40996;DHT22;26723;57.478;12.066;2022-10-31T04:13:25;13.20;99.90
40996;DHT22;26723;57.478;12.066;2022-10-31T04:16:44;13.20;99.90
40996;DHT22;26723;57.478;12.066;2022-10-31T04:19:52;13.20;99.90
40996;DHT22;26723;57.478;12.066;2022-10-31T04:23:01;13.10;99.90
40996;DHT22;26723;57.478;12.066;2022-10-31T04:26:12;13.10;99.90
40996;DHT22;26723;57.478;12.066;2022-10-31T04:29:23;13.10;99.90
40996;DHT22;26723;57.478;12.066;2022-10-31T04:32:32;13.10;99.90
40996;DHT22;26723;57.478;12.066;2022-10-31T04:35:41;13.10;99.90
40996;DHT22;26723;57.478;12.066;2022-10-31T04:38:50;13.10;99.90
40996;DHT22;26723;57.478;12.066;2022-10-31T04:42:13;13.20;99.90
40996;DHT22;26723;57.478;12.066;2022-10-31T04:45:21;13.20;99.90
40996;DHT22;26723;57.478;12.066;2022-10-31T04:48:35;13.20;99.90
40996;DHT22;26723;57.478;12.066;2022-10-31T04:51:45;13.20;99.90
40996;DHT22;26723;57.478;12.066;2022-10-31T04:54:54;13.20;99.90
40996;DHT22;26723;57.478;12.066;2022-10-31T04:58:27;13.10;99.90
40996;DHT22;26723;57.478;12.066;2022-10-31T05:01:35;13.10;99.90
40996;DHT22;26723;57.478;12.066;2022-10-31T05:04:44;13.10;99.90
40996;DHT22;26723;57.478;12.066;2022-10-31T05:07:53;13.10;99.90
40996;DHT22;26723;57.478;12.066;2022-10-31T05:11:04;13.10;99.90
40996;DHT22;26723;57.478;12.066;2022-10-31T05:14:14;13.10;99.90
40996;DHT22;26723;57.478;12.066;2022-10-31T05:17:55;13.10;99.90
40996;DHT22;26723;57.478;12.066;2022-10-31T05:21:24;13.10;99.90
40996;DHT22;26723;57.478;12.066;2022-10-31T05:24:38;13.10;99.90
40996;DHT22;26723;57.478;12.066;2022-10-31T05:27:50;13.20;99.90
40996;DHT22;26723;57.478;12.066;2022-10-31T05:31:00;13.20;99.90
40996;DHT22;26723;57.478;12.066;2022-10-31T05:34:10;13.20;99.90
40996;DHT22;26723;57.478;12.066;2022-10-31T05:37:37;13.10;99.90
40996;DHT22;26723;57.478;12.066;2022-10-31T05:40:45;13.10;99.90
40996;DHT22;26723;57.478;12.066;2022-10-31T05:43:54;13.10;99.90
40996;DHT22;26723;57.478;12.066;2022-10-31T05:47:08;13.10;99.90
40996;DHT22;26723;57.478;12.066;2022-10-31T05:50:49;13.10;99.90
40996;DHT22;26723;57.478;12.066;2022-10-31T05:53:57;13.10;99.90
40996;DHT22;26723;57.478;12.066;2022-10-31T05:57:07;13.10;99.90
40996;DHT22;26723;57.478;12.066;2022-10-31T06:00:15;13.10;99.90
40996;DHT22;26723;57.478;12.066;2022-10-31T06:03:31;13.00;99.90
40996;DHT22;26723;57.478;12.066;2022-10-31T06:06:42;13.00;99.90
40996;DHT22;26723;57.478;12.066;2022-10-31T06:09:51;13.00;99.90
40996;DHT22;26723;57.478;12.066;2022-10-31T06:13:00;13.00;99.90
40996;DHT22;26723;57.478;12.066;2022-10-31T06:16:15;13.00;99.90
40996;DHT22;26723;57.478;12.066;2022-10-31T06:19:25;13.00;99.90
40996;DHT22;26723;57.478;12.066;2022-10-31T06:22:34;13.00;99.90
40996;DHT22;26723;57.478;12.066;2022-10-31T06:25:42;13.00;99.90
40996;DHT22;26723;57.478;12.066;2022-10-31T06:28:51;13.00;99.90
40996;DHT22;26723;57.478;12.066;2022-10-31T06:32:22;13.00;99.90
40996;DHT22;26723;57.478;12.066;2022-10-31T06:35:32;13.00;99.90
40996;DHT22;26723;57.478;12.066;2022-10-31T06:38:41;13.00;99.90
40996;DHT22;26723;57.478;12.066;2022-10-31T06:41:50;13.00;99.90
40996;DHT22;26723;57.478;12.066;2022-10-31T06:45:00;13.00;99.90
40996;DHT22;26723;57.478;12.066;2022-10-31T06:48:27;13.10;99.90
40996;DHT22;26723;57.478;12.066;2022-10-31T06:51:55;13.10;99.90
40996;DHT22;26723;57.478;12.066;2022-10-31T06:55:04;13.10;99.90
40996;DHT22;26723;57.478;12.066;2022-10-31T06:58:13;13.10;99.90
40996;DHT22;26723;57.478;12.066;2022-10-31T07:01:24;13.10;99.90
40996;DHT22;26723;57.478;12.066;2022-10-31T07:04:33;13.10;99.90
40996;DHT22;26723;57.478;12.066;2022-10-31T07:07:43;13.20;99.90
40996;DHT22;26723;57.478;12.066;2022-10-31T07:10:53;13.20;99.90
40996;DHT22;26723;57.478;12.066;2022-10-31T07:14:02;13.20;99.90
40996;DHT22;26723;57.478;12.066;2022-10-31T07:17:12;13.30;99.90
40996;DHT22;26723;57.478;12.066;2022-10-31T07:20:23;13.30;99.90
40996;DHT22;26723;57.478;12.066;2022-10-31T07:23:34;13.30;99.90
40996;DHT22;26723;57.478;12.066;2022-10-31T07:27:08;13.30;99.90
40996;DHT22;26723;57.478;12.066;2022-10-31T07:30:17;13.30;99.90
40996;DHT22;26723;57.478;12.066;2022-10-31T07:33:28;13.40;99.90
40996;DHT22;26723;57.478;12.066;2022-10-31T07:37:15;13.40;99.90
40996;DHT22;26723;57.478;12.066;2022-10-31T07:40:25;13.40;99.90
40996;DHT22;26723;57.478;12.066;2022-10-31T07:43:34;13.40;99.90
40996;DHT22;26723;57.478;12.066;2022-10-31T07:47:02;13.40;99.90
40996;DHT22;26723;57.478;12.066;2022-10-31T07:50:31;13.40;99.90
40996;DHT22;26723;57.478;12.066;2022-10-31T07:54:13;13.50;99.90
40996;DHT22;26723;57.478;12.066;2022-10-31T07:57:23;13.50;99.90
40996;DHT22;26723;57.478;12.066;2022-10-31T08:00:35;13.60;99.90
40996;DHT22;26723;57.478;12.066;2022-10-31T08:03:44;13.70;99.90
40996;DHT22;26723;57.478;12.066;2022-10-31T08:07:15;13.90;99.90
40996;DHT22;26723;57.478;12.066;2022-10-31T08:10:30;13.80;99.90
40996;DHT22;26723;57.478;12.066;2022-10-31T08:13:41;13.70;99.90
40996;DHT22;26723;57.478;12.066;2022-10-31T08:16:53;13.60;99.90
40996;DHT22;26723;57.478;12.066;2022-10-31T08:20:05;13.60;99.90
40996;DHT22;26723;57.478;12.066;2022-10-31T08:23:21;13.60;99.90
40996;DHT22;26723;57.478;12.066;2022-10-31T08:26:32;13.60;99.90
40996;DHT22;26723;57.478;12.066;2022-10-31T08:29:42;13.60;99.90
40996;DHT22;26723;57.478;12.066;2022-10-31T08:33:02;13.60;99.90
40996;DHT22;26723;57.478;12.066;2022-10-31T08:36:29;13.70;99.90
40996;DHT22;26723;57.478;12.066;2022-10-31T08:39:37;13.70;99.90
40996;DHT22;26723;57.478;12.066;2022-10-31T08:42:46;13.70;99.90
40996;DHT22;26723;57.478;12.066;2022-10-31T08:45:56;13.70;99.90
40996;DHT22;26723;57.478;12.066;2022-10-31T08:49:08;13.80;99.90
40996;DHT22;26723;57.478;12.066;2022-10-31T08:52:17;13.80;99.90
40996;DHT22;26723;57.478;12.066;2022-10-31T08:55:27;13.70;99.90
40996;DHT22;26723;57.478;12.066;2022-10-31T08:58:44;13.70;99.90
40996;DHT22;26723;57.478;12.066;2022-10-31T09:01:54;13.70;99.90
40996;DHT22;26723;57.478;12.066;2022-10-31T09:05:05;13.80;99.90
40996;DHT22;26723;57.478;12.066;2022-10-31T09:08:14;13.80;99.90
40996;DHT22;26723;57.478;12.066;2022-10-31T09:11:25;13.80;99.90
40996;DHT22;26723;57.478;12.066;2022-10-31T09:14:52;13.90;99.90
40996;DHT22;26723;57.478;12.066;2022-10-31T09:18:07;14.00;99.90
40996;DHT22;26723;57.478;12.066;2022-10-31T09:21:22;14.00;99.90
40996;DHT22;26723;57.478;12.066;2022-10-31T09:24:31;13.90;99.90
40996;DHT22;26723;57.478;12.066;2022-10-31T09:27:40;13.90;99.90
40996;DHT22;26723;57.478;12.066;2022-10-31T09:30:49;13.90;99.90
40996;DHT22;26723;57.478;12.066;2022-10-31T09:34:18;13.90;99.90
40996;DHT22;26723;57.478;12.066;2022-10-31T09:37:41;13.90;99.90
40996;DHT22;26723;57.478;12.066;2022-10-31T09:40:54;13.90;99.90
40996;DHT22;26723;57.478;12.066;2022-10-31T09:44:07;13.90;99.90
40996;DHT22;26723;57.478;12.066;2022-10-31T09:47:27;13.90;99.90
40996;DHT22;26723;57.478;12.066;2022-10-31T09:51:01;13.90;99.90
40996;DHT22;26723;57.478;12.066;2022-10-31T09:54:30;14.00;99.90
40996;DHT22;26723;57.478;12.066;2022-10-31T09:57:41;13.90;99.90
40996;DHT22;26723;57.478;12.066;2022-10-31T10:00:50;13.90;99.90
40996;DHT22;26723;57.478;12.066;2022-10-31T10:04:03;14.10;99.90
40996;DHT22;26723;57.478;12.066;2022-10-31T10:07:46;14.60;99.90
40996;DHT22;26723;57.478;12.066;2022-10-31T10:11:48;14.90;99.90
40996;DHT22;26723;57.478;12.066;2022-10-31T10:15:14;15.20;99.90
40996;DHT22;26723;57.478;12.066;2022-10-31T10:18:32;15.20;99.90
40996;DHT22;26723;57.478;12.066;2022-10-31T10:21:48;15.70;99.90
40996;DHT22;26723;57.478;12.066;2022-10-31T10:25:15;16.00;99.90
40996;DHT22;26723;57.478;12.066;2022-10-31T10:28:27;16.40;99.90
40996;DHT22;26723;57.478;12.066;2022-10-31T10:31:39;16.50;99.90
40996;DHT22;26723;57.478;12.066;2022-10-31T10:34:50;16.60;99.90
40996;DHT22;26723;57.478;12.066;2022-10-31T10:38:03;16.60;99.90
40996;DHT22;26723;57.478;12.066;2022-10-31T10:41:20;16.60;99.90
40996;DHT22;26723;57.478;12.066;2022-10-31T10:44:29;16.70;99.90
40996;DHT22;26723;57.478;12.066;2022-10-31T10:47:58;16.80;99.90
40996;DHT22;26723;57.478;12.066;2022-10-31T10:51:30;16.70;99.90
40996;DHT22;26723;57.478;12.066;2022-10-31T10:55:03;16.90;99.90
40996;DHT22;26723;57.478;12.066;2022-10-31T10:58:18;16.80;99.90
40996;DHT22;26723;57.478;12.066;2022-10-31T11:01:27;16.90;99.90
40996;DHT22;26723;57.478;12.066;2022-10-31T11:04:38;16.90;99.90
40996;DHT22;26723;57.478;12.066;2022-10-31T11:07:47;17.00;99.90
40996;DHT22;26723;57.478;12.066;2022-10-31T11:10:58;17.00;99.90
40996;DHT22;26723;57.478;12.066;2022-10-31T11:14:14;16.90;99.90
40996;DHT22;26723;57.478;12.066;2022-10-31T11:17:29;17.00;99.90
40996;DHT22;26723;57.478;12.066;2022-10-31T11:20:39;17.00;99.90
40996;DHT22;26723;57.478;12.066;2022-10-31T11:23:47;17.00;99.90
40996;DHT22;26723;57.478;12.066;2022-10-31T11:27:13;17.00;99.90
40996;DHT22;26723;57.478;12.066;2022-10-31T11:30:23;16.90;99.90
40996;DHT22;26723;57.478;12.066;2022-10-31T11:33:33;16.90;99.90
40996;DHT22;26723;57.478;12.066;2022-10-31T11:36:43;16.90;99.90
40996;DHT22;26723;57.478;12.066;2022-10-31T11:39:53;16.90;99.90
40996;DHT22;26723;57.478;12.066;2022-10-31T11:43:02;16.90;99.90
40996;DHT22;26723;57.478;12.066;2022-10-31T11:46:17;16.70;99.90
40996;DHT22;26723;57.478;12.066;2022-10-31T11:49:30;16.70;99.90
40996;DHT22;26723;57.478;12.066;2022-10-31T11:52:40;16.70;99.90
40996;DHT22;26723;57.478;12.066;2022-10-31T11:56:04;16.50;99.90
40996;DHT22;26723;57.478;12.066;2022-10-31T11:59:20;16.50;99.90
40996;DHT22;26723;57.478;12.066;2022-10-31T12:02:31;16.50;99.90
40996;DHT22;26723;57.478;12.066;2022-10-31T12:05:40;16.40;99.90
40996;DHT22;26723;57.478;12.066;2022-10-31T12:08:50;16.30;99.90
40996;DHT22;26723;57.478;12.066;2022-10-31T12:12:21;16.20;99.90
40996;DHT22;26723;57.478;12.066;2022-10-31T12:15:33;16.30;99.90
40996;DHT22;26723;57.478;12.066;2022-10-31T12:18:56;16.30;99.90
40996;DHT22;26723;57.478;12.066;2022-10-31T12:22:13;16.20;99.90
40996;DHT22;26723;57.478;12.066;2022-10-31T12:25:31;16.10;99.90
40996;DHT22;26723;57.478;12.066;2022-10-31T12:29:04;16.10;99.90
40996;DHT22;26723;57.478;12.066;2022-10-31T12:32:23;16.10;99.90
40996;DHT22;26723;57.478;12.066;2022-10-31T12:35:45;16.00;99.90
40996;DHT22;26723;57.478;12.066;2022-10-31T12:39:07;16.00;99.90
40996;DHT22;26723;57.478;12.066;2022-10-31T12:42:39;15.90;99.90
40996;DHT22;26723;57.478;12.066;2022-10-31T12:45:54;15.80;99.90
40996;DHT22;26723;57.478;12.066;2022-10-31T12:49:17;15.70;99.90
40996;DHT22;26723;57.478;12.066;2022-10-31T12:52:46;15.60;99.90
40996;DHT22;26723;57.478;12.066;2022-10-31T12:56:03;15.60;99.90
40996;DHT22;26723;57.478;12.066;2022-10-31T12:59:19;15.60;99.90
40996;DHT22;26723;57.478;12.066;2022-10-31T13:02:32;15.60;99.90
40996;DHT22;26723;57.478;12.066;2022-10-31T13:05:44;15.50;99.90
40996;DHT22;26723;57.478;12.066;2022-10-31T13:08:58;15.40;99.90
40996;DHT22;26723;57.478;12.066;2022-10-31T13:12:10;15.50;99.90
40996;DHT22;26723;57.478;12.066;2022-10-31T13:15:23;15.40;99.90
40996;DHT22;26723;57.478;12.066;2022-10-31T13:18:38;15.30;99.90
40996;DHT22;26723;57.478;12.066;2022-10-31T13:21:55;15.20;99.90
40996;DHT22;26723;57.478;12.066;2022-10-31T13:25:13;15.10;99.90
40996;DHT22;26723;57.478;12.066;2022-10-31T13:28:29;15.00;99.90
40996;DHT22;26723;57.478;12.066;2022-10-31T13:31:40;14.90;99.90
40996;DHT22;26723;57.478;12.066;2022-10-31T13:34:52;14.90;99.90
40996;DHT22;26723;57.478;12.066;2022-10-31T13:38:10;14.70;99.90
40996;DHT22;26723;57.478;12.066;2022-10-31T13:41:32;14.70;99.90
40996;DHT22;26723;57.478;12.066;2022-10-31T13:44:43;14.70;99.90
40996;DHT22;26723;57.478;12.066;2022-10-31T13:47:57;14.60;99.90
40996;DHT22;26723;57.478;12.066;2022-10-31T13:51:08;14.60;99.90
40996;DHT22;26723;57.478;12.066;2022-10-31T13:54:22;14.50;99.90
40996;DHT22;26723;57.478;12.066;2022-10-31T13:57:40;14.10;99.90
40996;DHT22;26723;57.478;12.066;2022-10-31T14:01:14;13.80;99.90
40996;DHT22;26723;57.478;12.066;2022-10-31T14:04:25;13.70;99.90
40996;DHT22;26723;57.478;12.066;2022-10-31T14:07:34;13.70;99.90
40996;DHT22;26723;57.478;12.066;2022-10-31T14:10:52;13.60;99.90
40996;DHT22;26723;57.478;12.066;2022-10-31T14:14:11;13.50;99.90
40996;DHT22;26723;57.478;12.066;2022-10-31T14:17:23;13.30;99.90
40996;DHT22;26723;57.478;12.066;2022-10-31T14:20:36;13.20;99.90
40996;DHT22;26723;57.478;12.066;2022-10-31T14:23:45;13.10;99.90
40996;DHT22;26723;57.478;12.066;2022-10-31T14:26:59;13.00;99.90
40996;DHT22;26723;57.478;12.066;2022-10-31T14:30:15;13.00;99.90
40996;DHT22;26723;57.478;12.066;2022-10-31T14:33:26;12.90;99.90
40996;DHT22;26723;57.478;12.066;2022-10-31T14:36:41;12.80;99.90
40996;DHT22;26723;57.478;12.066;2022-10-31T14:40:21;12.80;99.90
40996;DHT22;26723;57.478;12.066;2022-10-31T14:43:41;12.80;99.90
40996;DHT22;26723;57.478;12.066;2022-10-31T14:47:01;12.80;99.90
40996;DHT22;26723;57.478;12.066;2022-10-31T14:50:34;12.80;99.90
40996;DHT22;26723;57.478;12.066;2022-10-31T14:53:47;12.70;99.90
40996;DHT22;26723;57.478;12.066;2022-10-31T14:57:00;12.70;99.90
40996;DHT22;26723;57.478;12.066;2022-10-31T15:00:16;12.70;99.90
40996;DHT22;26723;57.478;12.066;2022-10-31T15:03:30;12.70;99.90
40996;DHT22;26723;57.478;12.066;2022-10-31T15:06:42;12.60;99.90
40996;DHT22;26723;57.478;12.066;2022-10-31T15:09:55;12.60;99.90
40996;DHT22;26723;57.478;12.066;2022-10-31T15:13:14;12.60;99.90
40996;DHT22;26723;57.478;12.066;2022-10-31T15:16:27;12.50;99.90
40996;DHT22;26723;57.478;12.066;2022-10-31T15:19:43;12.50;99.90
40996;DHT22;26723;57.478;12.066;2022-10-31T15:22:54;12.50;99.90
40996;DHT22;26723;57.478;12.066;2022-10-31T15:26:04;12.40;99.90
40996;DHT22;26723;57.478;12.066;2022-10-31T15:29:15;12.40;99.90
40996;DHT22;26723;57.478;12.066;2022-10-31T15:32:26;12.40;99.90
40996;DHT22;26723;57.478;12.066;2022-10-31T15:35:36;12.40;99.90
40996;DHT22;26723;57.478;12.066;2022-10-31T15:38:44;12.30;99.90
40996;DHT22;26723;57.478;12.066;2022-10-31T15:41:54;12.30;99.90
40996;DHT22;26723;57.478;12.066;2022-10-31T15:45:05;12.30;99.90
40996;DHT22;26723;57.478;12.066;2022-10-31T15:48:24;12.40;99.90
40996;DHT22;26723;57.478;12.066;2022-10-31T15:51:34;12.30;99.90
40996;DHT22;26723;57.478;12.066;2022-10-31T15:54:47;12.20;99.90
40996;DHT22;26723;57.478;12.066;2022-10-31T15:57:58;12.30;99.90
40996;DHT22;26723;57.478;12.066;2022-10-31T16:01:20;12.30;99.90
40996;DHT22;26723;57.478;12.066;2022-10-31T16:04:30;12.30;99.90
40996;DHT22;26723;57.478;12.066;2022-10-31T16:07:48;12.20;99.90
40996;DHT22;26723;57.478;12.066;2022-10-31T16:10:58;12.20;99.90
40996;DHT22;26723;57.478;12.066;2022-10-31T16:14:15;12.20;99.90
40996;DHT22;26723;57.478;12.066;2022-10-31T16:17:31;12.20;99.90
40996;DHT22;26723;57.478;12.066;2022-10-31T16:20:40;12.10;99.90
40996;DHT22;26723;57.478;12.066;2022-10-31T16:23:57;12.10;99.90
40996;DHT22;26723;57.478;12.066;2022-10-31T16:27:18;12.10;99.90
40996;DHT22;26723;57.478;12.066;2022-10-31T16:30:36;12.10;99.90
40996;DHT22;26723;57.478;12.066;2022-10-31T16:34:09;12.10;99.90
40996;DHT22;26723;57.478;12.066;2022-10-31T16:37:19;12.10;99.90
40996;DHT22;26723;57.478;12.066;2022-10-31T16:40:29;12.00;99.90
40996;DHT22;26723;57.478;12.066;2022-10-31T16:43:38;12.00;99.90
40996;DHT22;26723;57.478;12.066;2022-10-31T16:46:46;12.00;99.90
40996;DHT22;26723;57.478;12.066;2022-10-31T16:49:55;12.00;99.90
40996;DHT22;26723;57.478;12.066;2022-10-31T16:53:07;12.00;99.90
40996;DHT22;26723;57.478;12.066;2022-10-31T16:56:26;12.10;99.90
40996;DHT22;26723;57.478;12.066;2022-10-31T16:59:35;12.10;99.90
40996;DHT22;26723;57.478;12.066;2022-10-31T17:02:45;12.10;99.90
40996;DHT22;26723;57.478;12.066;2022-10-31T17:05:55;12.10;99.90
40996;DHT22;26723;57.478;12.066;2022-10-31T17:09:04;12.00;99.90
40996;DHT22;26723;57.478;12.066;2022-10-31T17:12:17;12.10;99.90
40996;DHT22;26723;57.478;12.066;2022-10-31T17:15:27;12.00;99.90
40996;DHT22;26723;57.478;12.066;2022-10-31T17:18:36;12.10;99.90
40996;DHT22;26723;57.478;12.066;2022-10-31T17:21:44;12.10;99.90
40996;DHT22;26723;57.478;12.066;2022-10-31T17:24:52;12.10;99.90
40996;DHT22;26723;57.478;12.066;2022-10-31T17:28:02;12.10;99.90
40996;DHT22;26723;57.478;12.066;2022-10-31T17:31:19;12.10;99.90
40996;DHT22;26723;57.478;12.066;2022-10-31T17:34:28;12.00;99.90
40996;DHT22;26723;57.478;12.066;2022-10-31T17:37:36;12.00;99.90
40996;DHT22;26723;57.478;12.066;2022-10-31T17:40:44;12.00;99.90
40996;DHT22;26723;57.478;12.066;2022-10-31T17:43:55;12.00;99.90
40996;DHT22;26723;57.478;12.066;2022-10-31T17:47:04;12.00;99.90
40996;DHT22;26723;57.478;12.066;2022-10-31T17:50:12;12.00;99.90
40996;DHT22;26723;57.478;12.066;2022-10-31T17:53:21;12.00;99.90
40996;DHT22;26723;57.478;12.066;2022-10-31T17:56:29;12.10;99.90
40996;DHT22;26723;57.478;12.066;2022-10-31T17:59:39;12.00;99.90
40996;DHT22;26723;57.478;12.066;2022-10-31T18:02:47;12.00;99.90
40996;DHT22;26723;57.478;12.066;2022-10-31T18:05:57;12.00;99.90
40996;DHT22;26723;57.478;12.066;2022-10-31T18:09:06;12.00;99.90
40996;DHT22;26723;57.478;12.066;2022-10-31T18:12:15;12.00;99.90
40996;DHT22;26723;57.478;12.066;2022-10-31T18:15:25;12.00;99.90
40996;DHT22;26723;57.478;12.066;2022-10-31T18:18:33;11.90;99.90
40996;DHT22;26723;57.478;12.066;2022-10-31T18:21:42;11.90;99.90
40996;DHT22;26723;57.478;12.066;2022-10-31T18:24:51;11.90;99.90
40996;DHT22;26723;57.478;12.066;2022-10-31T18:28:05;12.00;99.90
40996;DHT22;26723;57.478;12.066;2022-10-31T18:31:15;11.90;99.90
40996;DHT22;26723;57.478;12.066;2022-10-31T18:34:24;11.90;99.90
40996;DHT22;26723;57.478;12.066;2022-10-31T18:37:32;11.90;99.90
40996;DHT22;26723;57.478;12.066;2022-10-31T18:40:41;11.80;99.90
40996;DHT22;26723;57.478;12.066;2022-10-31T18:43:49;11.80;99.90
40996;DHT22;26723;57.478;12.066;2022-10-31T18:47:01;11.70;99.90
40996;DHT22;26723;57.478;12.066;2022-10-31T18:50:09;11.80;99.90
40996;DHT22;26723;57.478;12.066;2022-10-31T18:53:18;11.80;99.90
40996;DHT22;26723;57.478;12.066;2022-10-31T18:56:27;11.70;99.90
40996;DHT22;26723;57.478;12.066;2022-10-31T18:59:37;11.80;99.90
40996;DHT22;26723;57.478;12.066;2022-10-31T19:02:47;11.70;99.90
40996;DHT22;26723;57.478;12.066;2022-10-31T19:05:55;11.70;99.90
40996;DHT22;26723;57.478;12.066;2022-10-31T19:09:05;11.80;99.90
40996;DHT22;26723;57.478;12.066;2022-10-31T19:12:15;11.70;99.90
40996;DHT22;26723;57.478;12.066;2022-10-31T19:15:23;11.70;99.90
40996;DHT22;26723;57.478;12.066;2022-10-31T19:18:34;11.70;99.90
40996;DHT22;26723;57.478;12.066;2022-10-31T19:21:42;11.70;99.90
40996;DHT22;26723;57.478;12.066;2022-10-31T19:24:50;11.70;99.90
40996;DHT22;26723;57.478;12.066;2022-10-31T19:27:59;11.70;99.90
40996;DHT22;26723;57.478;12.066;2022-10-31T19:31:08;11.60;99.90
40996;DHT22;26723;57.478;12.066;2022-10-31T19:34:19;11.70;99.90
40996;DHT22;26723;57.478;12.066;2022-10-31T19:37:27;11.70;99.90
40996;DHT22;26723;57.478;12.066;2022-10-31T19:40:35;11.70;99.90
40996;DHT22;26723;57.478;12.066;2022-10-31T19:43:44;11.70;99.90
40996;DHT22;26723;57.478;12.066;2022-10-31T19:46:52;11.70;99.90
40996;DHT22;26723;57.478;12.066;2022-10-31T19:50:02;11.70;99.90
40996;DHT22;26723;57.478;12.066;2022-10-31T19:53:11;11.70;99.90
40996;DHT22;26723;57.478;12.066;2022-10-31T19:56:21;11.80;99.90
40996;DHT22;26723;57.478;12.066;2022-10-31T19:59:29;11.70;99.90
40996;DHT22;26723;57.478;12.066;2022-10-31T20:02:44;11.70;99.90
40996;DHT22;26723;57.478;12.066;2022-10-31T20:05:55;11.60;99.90
40996;DHT22;26723;57.478;12.066;2022-10-31T20:09:05;11.50;99.90
40996;DHT22;26723;57.478;12.066;2022-10-31T20:12:15;11.40;99.90